createdAt,value
2023-04-09T00:04:22.812Z,33.00
2023-04-09T00:08:20.861Z,35.50
2023-04-09T00:12:18.732Z,33.70
2023-04-09T00:16:16.752Z,36.60
2023-04-09T00:20:14.697Z,34.20
2023-04-09T00:24:16.052Z,41.20
2023-04-09T00:28:13.653Z,41.60
2023-04-09T00:32:12.669Z,41.40
2023-04-09T00:36:10.722Z,48.50
2023-04-09T00:40:08.668Z,44.30
2023-04-09T00:44:06.808Z,46.80
2023-04-09T00:48:04.742Z,41.30
2023-04-09T00:52:04.684Z,39.70
2023-04-09T00:56:02.694Z,37.30
2023-04-09T01:00:00.663Z,39.80
2023-04-09T01:03:58.808Z,35.80
2023-04-09T01:08:24.639Z,39.10
2023-04-09T01:12:46.788Z,41.20
2023-04-09T01:16:48.667Z,42.80
2023-04-09T01:20:54.624Z,40.50
2023-04-09T01:25:07.753Z,41.10
2023-04-09T01:29:08.700Z,40.90
2023-04-09T01:33:08.712Z,40.20
2023-04-09T01:37:12.576Z,48.70
2023-04-09T01:41:13.660Z,47.60
2023-04-09T01:45:12.718Z,42.20
2023-04-09T01:49:11.586Z,44.60
2023-04-09T01:53:10.595Z,40.50
2023-04-09T01:57:12.680Z,51.20
2023-04-09T02:01:16.612Z,42.60
2023-04-09T02:05:17.528Z,52.10
2023-04-09T02:09:19.632Z,46.40
2023-04-09T02:13:19.551Z,43.50
2023-04-09T02:17:19.581Z,44.90
2023-04-09T02:21:17.528Z,40.90
2023-04-09T02:25:15.547Z,43.80
2023-04-09T02:29:14.619Z,40.10
2023-04-09T02:33:13.558Z,49.90
2023-04-09T02:37:11.507Z,49.20
2023-04-09T02:41:10.651Z,43.00
2023-04-09T02:45:08.584Z,48.10
2023-04-09T02:49:06.504Z,51.80
2023-04-09T02:53:04.502Z,53.40
2023-04-09T02:57:03.561Z,49.30
2023-04-09T03:01:01.478Z,51.20
2023-04-09T03:04:59.717Z,45.50
2023-04-09T03:08:57.606Z,44.20
2023-04-09T03:12:55.456Z,51.70
2023-04-09T03:16:53.443Z,49.20
2023-04-09T03:20:54.523Z,50.10
2023-04-09T03:25:00.579Z,48.10
2023-04-09T03:28:58.540Z,47.00
2023-04-09T03:32:56.465Z,42.20
2023-04-09T03:36:58.600Z,51.50
2023-04-09T03:40:57.431Z,48.60
2023-04-09T03:44:57.557Z,51.40
2023-04-09T03:49:01.408Z,59.70
2023-04-09T03:53:04.447Z,51.70
2023-04-09T03:57:04.506Z,50.40
2023-04-09T04:01:04.427Z,55.60
2023-04-09T04:05:09.618Z,54.20
2023-04-09T04:09:10.478Z,50.90
2023-04-09T04:13:13.424Z,50.90
2023-04-09T04:17:16.423Z,47.90
2023-04-09T04:21:19.363Z,59.80
2023-04-09T04:25:21.446Z,54.90
2023-04-09T04:29:20.382Z,58.20
2023-04-09T04:33:24.428Z,61.90
2023-04-09T04:37:22.363Z,61.20
2023-04-09T04:41:22.334Z,57.20
2023-04-09T04:49:33.390Z,58.40
2023-04-09T04:53:31.384Z,65.90
2023-04-09T04:57:34.502Z,63.10
2023-04-09T05:01:33.517Z,62.00
2023-04-09T05:05:33.394Z,58.10
2023-04-09T05:09:31.390Z,61.00
2023-04-09T05:13:31.403Z,67.20
2023-04-09T05:17:31.473Z,60.90
2023-04-09T05:21:30.416Z,64.00
2023-04-09T05:25:29.373Z,70.60
2023-04-09T05:29:34.569Z,99.00
2023-04-09T05:33:32.655Z,110.70
2023-04-09T05:37:35.333Z,108.30
2023-04-09T05:41:33.252Z,94.00
2023-04-09T05:45:49.258Z,79.50
2023-04-09T05:49:47.291Z,57.30
2023-04-09T05:53:46.303Z,58.40
2023-04-09T05:57:44.286Z,47.70
2023-04-09T06:01:42.395Z,42.50
2023-04-09T06:05:40.226Z,42.30
2023-04-09T06:09:38.270Z,38.20
2023-04-09T06:13:38.249Z,35.70
2023-04-09T06:17:36.379Z,24.00
2023-04-09T06:21:34.246Z,24.70
2023-04-09T06:25:32.222Z,35.40
2023-04-09T06:29:30.276Z,22.70
2023-04-09T06:33:28.266Z,23.10
2023-04-09T06:37:26.224Z,32.70
2023-04-09T06:41:24.259Z,23.40
2023-04-09T06:45:22.284Z,25.10
2023-04-09T06:49:20.256Z,24.40
2023-04-09T06:53:18.207Z,31.60
2023-04-09T06:57:16.162Z,25.30
2023-04-09T07:01:14.157Z,23.20
2023-04-09T07:05:13.226Z,32.00
2023-04-09T07:09:11.175Z,22.20
2023-04-09T07:13:09.255Z,24.90
2023-04-09T07:17:07.240Z,26.60
2023-04-09T07:21:07.260Z,21.60
2023-04-09T07:25:05.246Z,18.00
2023-04-09T07:29:03.190Z,18.40
2023-04-09T07:33:01.204Z,16.90
2023-04-09T07:37:02.116Z,16.50
2023-04-09T07:41:00.104Z,18.50
2023-04-09T07:44:59.231Z,17.50
2023-04-09T07:48:58.128Z,17.00
2023-04-09T07:52:56.189Z,16.50
2023-04-09T07:56:54.191Z,16.40
2023-04-09T08:00:52.110Z,17.60
2023-04-09T08:04:50.276Z,17.80
2023-04-09T08:08:49.258Z,16.20
2023-04-09T08:12:47.129Z,15.40
2023-04-09T08:16:45.261Z,15.60
2023-04-09T08:20:43.077Z,15.00
2023-04-09T08:24:41.093Z,15.10
2023-04-09T08:28:39.101Z,17.30
2023-04-09T08:32:37.256Z,17.70
2023-04-09T08:36:36.139Z,17.60
2023-04-09T08:40:34.122Z,15.00
2023-04-09T08:44:32.035Z,15.10
2023-04-09T08:48:31.105Z,16.30
2023-04-09T08:52:29.086Z,16.80
2023-04-09T08:56:28.079Z,16.50
2023-04-09T09:00:26.044Z,15.60
2023-04-09T09:04:24.170Z,17.10
2023-04-09T09:08:22.992Z,15.40
2023-04-09T09:12:21.086Z,14.90
2023-04-09T09:16:29.064Z,17.40
2023-04-09T09:20:36.026Z,15.00
2023-04-09T09:24:34.976Z,17.00
2023-04-09T09:28:33.017Z,13.50
2023-04-09T09:32:32.066Z,14.60
2023-04-09T09:36:47.078Z,16.60
2023-04-09T09:40:44.983Z,14.90
2023-04-09T09:44:46.992Z,14.20
2023-04-09T09:48:47.293Z,15.00
2023-04-09T09:52:44.993Z,16.90
2023-04-09T09:56:53.952Z,14.20
2023-04-09T10:00:54.113Z,14.60
2023-04-09T10:04:52.024Z,13.60
2023-04-09T10:08:52.347Z,15.30
2023-04-09T10:12:52.961Z,14.40
2023-04-09T10:16:50.977Z,14.50
2023-04-09T10:20:59.047Z,14.10
2023-04-09T10:24:56.951Z,14.70
2023-04-09T10:28:55.016Z,12.40
2023-04-09T10:32:53.010Z,12.90
2023-04-09T10:36:50.921Z,13.60
2023-04-09T10:40:48.916Z,11.40
2023-04-09T10:44:47.954Z,12.20
2023-04-09T10:48:47.933Z,11.40
2023-04-09T10:52:45.991Z,13.60
2023-04-09T10:56:44.033Z,11.60
2023-04-09T11:00:41.931Z,11.00
2023-04-09T11:05:05.986Z,10.60
2023-04-09T11:09:03.988Z,13.80
2023-04-09T11:13:03.980Z,11.90
2023-04-09T11:17:08.847Z,11.30
2023-04-09T11:21:13.894Z,12.30
2023-04-09T11:25:11.884Z,11.70
2023-04-09T11:29:12.910Z,11.10
2023-04-09T11:33:10.943Z,10.80
2023-04-09T11:37:14.005Z,12.30
2023-04-09T11:41:11.816Z,7.90
2023-04-09T11:45:09.868Z,8.90
2023-04-09T11:49:08.870Z,10.90
2023-04-09T11:53:09.285Z,8.80
2023-04-09T11:57:06.856Z,7.30
2023-04-09T12:01:07.862Z,8.10
2023-04-09T12:05:06.940Z,9.10
2023-04-09T12:09:07.827Z,8.90
2023-04-09T12:13:05.861Z,7.10
2023-04-09T12:17:06.874Z,6.60
2023-04-09T12:21:04.840Z,7.40
2023-04-09T12:25:02.956Z,6.60
2023-04-09T12:29:00.928Z,6.70
2023-04-09T12:32:59.027Z,7.90
2023-04-09T12:36:56.842Z,7.60
2023-04-09T12:40:54.859Z,7.70
2023-04-09T12:44:52.856Z,6.10
2023-04-09T12:48:50.806Z,9.30
2023-04-09T12:52:48.814Z,5.50
2023-04-09T12:56:47.806Z,5.20
2023-04-09T13:00:46.026Z,5.10
2023-04-09T13:04:45.811Z,5.20
2023-04-09T13:08:44.153Z,6.40
2023-04-09T13:12:41.786Z,6.80
2023-04-09T13:16:40.888Z,5.30
2023-04-09T13:20:39.069Z,5.40
2023-04-09T13:24:38.793Z,7.60
2023-04-09T13:28:37.793Z,8.20
2023-04-09T13:32:36.804Z,7.30
2023-04-09T13:36:34.782Z,7.00
2023-04-09T13:40:32.733Z,8.10
2023-04-09T13:44:30.766Z,7.10
2023-04-09T13:48:28.758Z,7.70
2023-04-09T13:52:29.386Z,7.40
2023-04-09T13:56:27.857Z,7.60
2023-04-09T14:00:26.734Z,9.10
2023-04-09T14:04:24.833Z,8.50
2023-04-09T14:08:22.799Z,8.00
2023-04-09T14:12:20.779Z,7.40
2023-04-09T14:16:18.808Z,6.90
2023-04-09T14:20:16.730Z,10.40
2023-04-09T14:24:14.804Z,9.00
2023-04-09T14:28:13.673Z,8.60
2023-04-09T14:32:11.833Z,13.20
2023-04-09T14:36:09.824Z,7.70
2023-04-09T14:40:07.650Z,8.60
2023-04-09T14:44:05.728Z,7.30
2023-04-09T14:48:03.884Z,7.40
2023-04-09T14:52:01.731Z,7.00
2023-04-09T14:55:59.675Z,9.20
2023-04-09T14:59:57.645Z,7.00
2023-04-09T15:03:55.884Z,6.60
2023-04-09T15:07:53.703Z,7.60
2023-04-09T15:11:51.686Z,5.40
2023-04-09T15:15:50.744Z,6.80
2023-04-09T15:19:48.677Z,7.00
2023-04-09T15:23:46.602Z,7.80
2023-04-09T15:27:44.722Z,8.00
2023-04-09T15:31:42.797Z,7.20
2023-04-09T15:35:40.710Z,8.00
2023-04-09T15:39:39.680Z,10.10
2023-04-09T15:43:37.594Z,7.40
2023-04-09T15:47:35.684Z,8.50
2023-04-09T15:51:33.596Z,8.50
2023-04-09T15:55:32.628Z,8.80
2023-04-09T15:59:31.570Z,8.40
2023-04-09T16:03:29.605Z,9.40
2023-04-09T16:07:28.627Z,7.90
2023-04-09T16:11:26.590Z,8.30
2023-04-09T16:15:24.676Z,11.10
2023-04-09T16:19:22.550Z,8.70
2023-04-09T16:23:20.629Z,10.00
2023-04-09T16:27:19.658Z,12.40
2023-04-09T16:31:17.730Z,9.50
2023-04-09T16:35:17.543Z,11.00
2023-04-09T16:39:16.700Z,10.90
2023-04-09T16:43:15.543Z,10.80
2023-04-09T16:47:14.541Z,12.40
2023-04-09T16:51:12.535Z,14.30
2023-04-09T16:55:10.536Z,14.10
2023-04-09T16:59:08.586Z,11.70
2023-04-09T17:03:06.706Z,11.60
2023-04-09T17:07:04.650Z,13.20
2023-04-09T17:11:08.529Z,11.50
2023-04-09T17:15:06.510Z,13.20
2023-04-09T17:19:04.627Z,13.10
2023-04-09T17:23:02.590Z,13.30
2023-04-09T17:27:00.476Z,14.30
2023-04-09T17:30:58.623Z,14.00
2023-04-09T17:34:56.535Z,17.50
2023-04-09T17:38:54.793Z,13.90
2023-04-09T17:42:52.509Z,17.20
2023-04-09T17:46:50.597Z,19.70
2023-04-09T17:50:48.483Z,23.00
2023-04-09T17:54:51.407Z,21.20
2023-04-09T17:58:49.459Z,19.00
2023-04-09T18:02:47.849Z,18.20
2023-04-09T18:06:45.428Z,19.80
2023-04-09T18:10:44.546Z,19.70
2023-04-09T18:14:42.468Z,20.40
2023-04-09T18:18:40.442Z,23.30
2023-04-09T18:22:38.425Z,30.50
2023-04-09T18:26:36.421Z,25.80
2023-04-09T18:30:34.435Z,26.40
2023-04-09T18:34:32.359Z,28.20
2023-04-09T18:38:30.446Z,29.60
2023-04-09T18:42:28.350Z,34.80
2023-04-09T18:46:28.697Z,26.80
2023-04-09T18:50:27.379Z,29.60
2023-04-09T18:54:25.392Z,29.70
2023-04-09T18:58:24.358Z,42.40
2023-04-09T19:02:22.597Z,33.90
2023-04-09T19:06:28.321Z,45.20
2023-04-09T19:10:27.404Z,34.70
2023-04-09T19:14:25.343Z,44.90
2023-04-09T19:18:23.461Z,30.70
2023-04-09T19:22:21.345Z,45.50
2023-04-09T19:26:19.403Z,42.70
2023-04-09T19:30:17.346Z,38.50
2023-04-09T19:34:19.872Z,76.60
2023-04-09T19:38:17.430Z,69.50
2023-04-09T19:42:15.385Z,43.60
2023-04-09T19:46:13.391Z,37.30
2023-04-09T19:50:11.375Z,39.60
2023-04-09T19:54:09.318Z,47.60
2023-04-09T19:58:07.277Z,35.20
2023-04-09T20:02:06.385Z,36.20
2023-04-09T20:06:04.408Z,39.40
2023-04-09T20:10:02.286Z,38.60
2023-04-09T20:14:00.370Z,38.10
2023-04-09T20:17:58.375Z,34.90
2023-04-09T20:21:56.420Z,36.90
2023-04-09T20:25:54.356Z,33.10
2023-04-09T20:29:52.284Z,31.50
2023-04-09T20:33:50.248Z,25.60
2023-04-09T20:37:48.238Z,37.30
2023-04-09T20:41:46.324Z,34.70
2023-04-09T20:45:44.383Z,33.00
2023-04-09T20:49:42.230Z,31.80
2023-04-09T20:53:40.262Z,37.00
2023-04-09T20:57:38.246Z,32.30
2023-04-09T21:01:36.392Z,31.40
2023-04-09T21:05:34.177Z,35.20
2023-04-09T21:09:33.297Z,32.50
2023-04-09T21:13:37.787Z,39.50
2023-04-09T21:17:44.245Z,42.20
2023-04-09T21:21:42.221Z,41.60
2023-04-09T21:25:44.235Z,63.20
2023-04-09T21:29:42.185Z,58.20
2023-04-09T21:33:42.200Z,69.00
2023-04-09T21:37:40.161Z,63.70
2023-04-09T21:41:38.227Z,61.90
2023-04-09T21:45:36.176Z,52.80
2023-04-09T21:49:34.158Z,40.10
2023-04-09T21:53:32.168Z,34.40
2023-04-09T21:57:30.251Z,39.10
2023-04-09T22:01:29.450Z,37.40
2023-04-09T22:05:27.243Z,42.70
2023-04-09T22:09:25.117Z,84.80
2023-04-09T22:13:23.290Z,78.50
2023-04-09T22:17:21.292Z,75.30
2023-04-09T22:21:19.117Z,41.10
2023-04-09T22:25:18.119Z,43.70
2023-04-09T22:29:17.133Z,40.40
2023-04-09T22:33:15.110Z,34.60
2023-04-09T22:37:13.207Z,38.50
2023-04-09T22:41:11.073Z,29.60
2023-04-09T22:45:09.091Z,34.90
2023-04-09T22:49:07.461Z,34.50
2023-04-09T22:53:05.094Z,44.00
2023-04-09T22:57:03.114Z,41.10
2023-04-09T23:01:02.086Z,37.80
2023-04-09T23:05:00.074Z,47.60
2023-04-09T23:08:58.150Z,35.10
2023-04-09T23:12:56.049Z,40.00
2023-04-09T23:16:54.125Z,40.80
2023-04-09T23:20:52.030Z,35.00
2023-04-09T23:24:50.099Z,38.80
2023-04-09T23:28:48.011Z,40.80
2023-04-09T23:32:46.070Z,37.10
2023-04-09T23:36:44.117Z,37.50
2023-04-09T23:40:41.993Z,41.60
2023-04-09T23:44:41.095Z,42.20
2023-04-09T23:48:39.082Z,47.10
2023-04-09T23:52:36.997Z,35.80
2023-04-09T23:56:35.023Z,35.20
